Time;durP1;ratioP1;P1;durP2;ratioP2;P2;SDS_P1;SDS_P2;PMS_P1;PMS_P2;Temp;Humidity;BMP_temperature;BMP_pressure;BME280_temperature;BME280_humidity;BME280_pressure;Samples;Min_cycle;Max_cycle;Signal;HPM_P1;HPM_P2
2022/11/10 00:01:40;;;;;;;30.23;27.95;;;11.50;99.90;;;;;;5024514;28;20398;-82
2022/11/10 00:04:06;;;;;;;30.13;27.65;;;11.40;99.90;;;;;;5032814;28;20045;-81
2022/11/10 00:06:32;;;;;;;30.63;28.33;;;11.40;99.90;;;;;;5036190;28;20405;-81
2022/11/10 00:08:58;;;;;;;30.63;28.08;;;11.40;99.90;;;;;;5054309;28;20056;-80
2022/11/10 00:11:24;;;;;;;29.92;27.60;;;11.40;99.90;;;;;;5036430;28;20036;-81
2022/11/10 00:19:20;;;;;;;33.85;30.77;;;11.30;99.90;;;;;;5059766;28;20039;-81
2022/11/10 00:21:46;;;;;;;33.78;30.70;;;11.20;99.90;;;;;;5036300;28;20056;-81
2022/11/10 00:24:12;;;;;;;33.95;31.08;;;11.10;99.90;;;;;;5053616;28;20033;-81
2022/11/10 00:26:38;;;;;;;35.15;31.90;;;11.00;99.90;;;;;;5035869;28;20049;-81
2022/11/10 00:29:04;;;;;;;35.20;32.30;;;11.00;99.90;;;;;;5035054;28;20033;-81
2022/11/10 00:31:30;;;;;;;37.00;33.72;;;11.00;99.90;;;;;;5019115;28;20045;-81
2022/11/10 00:33:57;;;;;;;35.15;32.30;;;11.00;99.90;;;;;;5035175;28;20045;-81
2022/11/10 00:36:23;;;;;;;35.05;32.17;;;10.90;99.90;;;;;;5035173;28;20040;-81
2022/11/10 00:38:50;;;;;;;33.42;30.67;;;10.80;99.90;;;;;;5036084;28;20037;-81
2022/11/10 00:41:16;;;;;;;35.83;32.90;;;10.80;99.90;;;;;;5034750;28;20041;-81
2022/11/10 00:43:42;;;;;;;35.10;32.28;;;10.70;99.90;;;;;;5036004;28;20033;-81
2022/11/10 00:46:08;;;;;;;32.10;29.10;;;10.70;99.90;;;;;;5053192;28;20036;-81
2022/11/10 00:48:34;;;;;;;33.50;30.85;;;10.70;99.90;;;;;;5053619;28;20485;-81
2022/11/10 00:51:00;;;;;;;34.65;31.85;;;10.70;99.90;;;;;;5052198;28;20029;-81
2022/11/10 00:53:26;;;;;;;32.58;30.20;;;10.70;99.90;;;;;;5035640;28;20047;-81
2022/11/10 00:55:52;;;;;;;32.72;29.92;;;10.70;99.90;;;;;;5052476;28;20041;-82
2022/11/10 00:58:19;;;;;;;34.03;31.15;;;10.70;99.90;;;;;;5053509;28;20028;-81
2022/11/10 01:00:45;;;;;;;35.30;32.55;;;10.70;99.90;;;;;;5052682;28;20056;-81
2022/11/10 01:03:14;;;;;;;35.75;32.83;;;10.70;99.90;;;;;;5052004;28;20033;-81
2022/11/10 01:05:40;;;;;;;34.92;32.20;;;10.70;99.90;;;;;;5019351;28;20032;-81
2022/11/10 01:08:06;;;;;;;33.75;30.98;;;10.70;99.90;;;;;;5052884;28;20033;-82
2022/11/10 01:10:33;;;;;;;34.55;31.83;;;10.90;99.90;;;;;;5052820;28;20478;-80
2022/11/10 01:12:59;;;;;;;33.58;31.02;;;10.90;99.90;;;;;;5018686;28;20063;-81
2022/11/10 01:15:25;;;;;;;32.60;29.80;;;10.90;99.90;;;;;;5034939;28;20043;-81
2022/11/10 01:17:52;;;;;;;29.75;27.20;;;10.80;99.90;;;;;;5034726;28;20048;-81
2022/11/10 01:20:18;;;;;;;31.50;29.42;;;10.70;99.90;;;;;;5034792;28;20033;-80
2022/11/10 01:22:44;;;;;;;33.03;30.55;;;10.80;99.90;;;;;;5017115;28;20041;-81
2022/11/10 01:25:10;;;;;;;32.90;30.50;;;10.90;99.90;;;;;;5051561;28;20021;-81
2022/11/10 01:27:36;;;;;;;33.75;30.98;;;10.70;99.90;;;;;;5034994;28;20397;-82
2022/11/10 01:30:03;;;;;;;33.35;30.88;;;10.70;99.90;;;;;;5014127;28;20409;-81
2022/11/10 01:32:30;;;;;;;32.63;30.17;;;10.70;99.90;;;;;;5018292;28;20032;-81
2022/11/10 01:34:56;;;;;;;33.65;30.70;;;10.80;99.90;;;;;;5018245;28;20048;-81
2022/11/10 01:37:22;;;;;;;31.25;28.92;;;10.70;99.90;;;;;;5034946;28;20040;-81
2022/11/10 01:39:48;;;;;;;33.03;30.48;;;10.70;99.90;;;;;;5034650;28;20036;-81
2022/11/10 01:42:14;;;;;;;31.55;29.30;;;10.80;99.90;;;;;;5051852;28;20041;-81
2022/11/10 01:44:41;;;;;;;32.28;29.77;;;10.80;99.90;;;;;;5051153;28;20036;-81
2022/11/10 01:47:07;;;;;;;31.27;28.98;;;10.80;99.90;;;;;;5048212;28;20032;-81
2022/11/10 01:49:34;;;;;;;31.75;29.55;;;10.80;99.90;;;;;;5002083;28;20033;-81
2022/11/10 01:52:06;;;;;;;32.67;29.60;;;10.80;99.90;;;;;;5014738;28;20059;-81
2022/11/10 01:54:42;;;;;;;31.02;28.92;;;10.80;99.90;;;;;;5047158;28;20040;-81
2022/11/10 01:57:09;;;;;;;32.63;30.02;;;10.60;99.90;;;;;;5017625;28;20028;-81
2022/11/10 01:59:39;;;;;;;32.90;30.25;;;10.60;99.90;;;;;;5017147;28;20505;-81
2022/11/10 02:02:12;;;;;;;32.53;30.05;;;10.60;99.90;;;;;;5017265;28;20040;-81
2022/11/10 02:04:38;;;;;;;32.38;30.10;;;10.50;99.90;;;;;;5018471;28;20044;-81
2022/11/10 02:07:04;;;;;;;33.50;30.73;;;10.40;99.90;;;;;;5034764;28;20024;-81
2022/11/10 02:09:30;;;;;;;35.42;32.05;;;10.30;99.90;;;;;;5000108;28;20390;-81
2022/11/10 02:11:56;;;;;;;34.60;31.38;;;10.30;99.90;;;;;;5052276;28;20036;-81
2022/11/10 02:14:23;;;;;;;35.72;32.65;;;10.40;99.90;;;;;;5016550;28;20417;-82
2022/11/10 02:16:49;;;;;;;35.03;31.80;;;10.30;99.90;;;;;;5051589;28;20037;-81
2022/11/10 02:19:23;;;;;;;36.40;33.22;;;10.30;99.90;;;;;;5052058;28;20033;-81
2022/11/10 02:21:49;;;;;;;36.08;33.20;;;10.30;99.90;;;;;;5034184;28;20032;-81
2022/11/10 02:24:15;;;;;;;35.17;32.25;;;10.30;99.90;;;;;;5031994;28;20032;-81
2022/11/10 02:26:50;;;;;;;33.88;31.05;;;10.30;99.90;;;;;;5013679;28;20037;-81
2022/11/10 02:29:16;;;;;;;32.78;30.13;;;10.20;99.90;;;;;;5032311;28;20029;-81
2022/11/10 02:31:42;;;;;;;35.95;33.00;;;10.20;99.90;;;;;;5031925;28;20037;-81
2022/11/10 02:34:09;;;;;;;34.80;32.03;;;10.20;99.90;;;;;;5016443;28;20501;-81
2022/11/10 02:36:35;;;;;;;34.90;32.13;;;10.20;99.90;;;;;;5033332;28;20029;-82
2022/11/10 02:39:01;;;;;;;34.88;31.77;;;10.20;99.90;;;;;;5045595;28;20025;-81
2022/11/10 02:41:27;;;;;;;35.30;32.30;;;10.20;99.90;;;;;;5028690;28;20045;-81
2022/11/10 02:43:53;;;;;;;35.40;32.70;;;10.20;99.90;;;;;;5033960;28;20033;-81
2022/11/10 02:46:19;;;;;;;35.15;32.30;;;10.20;99.90;;;;;;5048476;28;20037;-80
2022/11/10 02:48:45;;;;;;;35.33;32.42;;;10.30;99.90;;;;;;5024718;28;20045;-81
2022/11/10 02:51:11;;;;;;;35.67;32.38;;;10.20;99.90;;;;;;5032020;28;20028;-80
2022/11/10 02:53:37;;;;;;;35.05;32.13;;;10.20;99.90;;;;;;5037801;28;20041;-81
2022/11/10 02:56:04;;;;;;;34.60;31.35;;;10.10;99.90;;;;;;5031760;28;20036;-81
2022/11/10 02:58:30;;;;;;;33.90;30.67;;;10.20;99.90;;;;;;5014267;28;20048;-81
2022/11/10 03:00:57;;;;;;;33.90;30.33;;;10.20;99.90;;;;;;5039022;28;20044;-81
2022/11/10 03:03:23;;;;;;;37.05;33.63;;;10.20;99.90;;;;;;5049756;28;20469;-81
2022/11/10 03:05:49;;;;;;;37.03;33.88;;;10.20;99.90;;;;;;5029896;28;20025;-81
2022/11/10 03:08:16;;;;;;;37.35;33.78;;;10.10;99.90;;;;;;5022969;28;20370;-81
2022/11/10 03:10:42;;;;;;;34.20;31.10;;;10.10;99.90;;;;;;5042718;28;20473;-82
2022/11/10 03:13:08;;;;;;;38.33;34.92;;;10.00;99.90;;;;;;5033959;28;20064;-81
2022/11/10 03:15:34;;;;;;;35.55;32.58;;;10.00;99.90;;;;;;5052188;28;20481;-82
2022/11/10 03:18:03;;;;;;;37.13;33.65;;;10.00;99.90;;;;;;5042895;28;20040;-82
2022/11/10 03:20:30;;;;;;;37.70;34.42;;;10.00;99.90;;;;;;5032894;28;20059;-81
2022/11/10 03:23:00;;;;;;;36.72;33.70;;;9.90;99.90;;;;;;5052911;28;20029;-81
2022/11/10 03:25:26;;;;;;;36.83;33.42;;;9.90;99.90;;;;;;5050908;28;20481;-82
2022/11/10 03:27:52;;;;;;;35.53;32.47;;;9.80;99.90;;;;;;5034406;28;20048;-82
2022/11/10 03:30:19;;;;;;;34.65;31.48;;;9.80;99.90;;;;;;5052383;28;20041;-82
2022/11/10 03:32:45;;;;;;;35.40;32.50;;;9.80;99.90;;;;;;5035492;28;20476;-81
2022/11/10 03:35:11;;;;;;;35.92;32.42;;;9.80;99.90;;;;;;5053573;28;20040;-81
2022/11/10 03:37:39;;;;;;;35.97;32.70;;;9.80;99.90;;;;;;5036231;28;20402;-81
2022/11/10 03:40:06;;;;;;;34.70;31.58;;;9.80;99.90;;;;;;5037147;28;20433;-81
2022/11/10 03:42:32;;;;;;;34.38;31.27;;;9.80;99.90;;;;;;5054571;28;20029;-81
2022/11/10 03:44:58;;;;;;;33.35;30.80;;;9.90;99.90;;;;;;5053923;28;20493;-81
2022/11/10 03:47:24;;;;;;;32.60;30.02;;;9.90;99.90;;;;;;5054216;28;20425;-81
2022/11/10 03:49:50;;;;;;;32.40;29.52;;;9.80;99.90;;;;;;5054433;28;20384;-81
2022/11/10 03:52:16;;;;;;;32.13;29.67;;;9.80;99.90;;;;;;5054856;28;20032;-81
2022/11/10 03:54:42;;;;;;;31.58;29.48;;;9.80;99.90;;;;;;5045446;28;20041;-81
2022/11/10 03:57:08;;;;;;;31.15;28.60;;;9.90;99.90;;;;;;5036212;28;20048;-82
2022/11/10 03:59:35;;;;;;;31.92;29.33;;;9.90;99.90;;;;;;5018088;28;20041;-81
2022/11/10 04:02:01;;;;;;;32.25;29.65;;;9.90;99.90;;;;;;5031252;28;20044;-82
2022/11/10 04:09:57;;;;;;;32.20;29.27;;;9.70;99.90;;;;;;5046204;28;20044;-83
2022/11/10 04:17:54;;;;;;;25.77;23.60;;;9.30;99.90;;;;;;5060332;28;20044;-84
2022/11/10 04:20:20;;;;;;;27.60;25.30;;;9.10;99.90;;;;;;5032618;28;20036;-82
2022/11/10 04:26:27;;;;;;;28.17;25.80;;;9.10;99.90;;;;;;5052064;28;20508;-83
2022/11/10 04:28:16;;;;;;;27.35;24.92;;;9.20;99.90;;;;;;5038914;28;20029;-84
2022/11/10 04:30:43;;;;;;;26.98;25.13;;;9.30;99.90;;;;;;5016998;28;20226;-83
2022/11/10 04:33:09;;;;;;;26.40;24.30;;;9.30;99.90;;;;;;5019191;28;20410;-84
2022/11/10 04:35:35;;;;;;;25.67;23.67;;;9.30;99.90;;;;;;5018820;28;20040;-84
2022/11/10 04:38:01;;;;;;;24.65;22.77;;;9.40;99.90;;;;;;5035503;28;20036;-84
2022/11/10 04:40:27;;;;;;;25.23;23.35;;;9.40;99.90;;;;;;5034439;28;20044;-84
2022/11/10 04:42:53;;;;;;;23.65;21.52;;;9.30;99.90;;;;;;5035275;28;20037;-84
2022/11/10 04:45:20;;;;;;;23.92;21.73;;;9.40;99.90;;;;;;5033997;28;20043;-83
2022/11/10 04:47:46;;;;;;;24.55;22.63;;;9.40;99.90;;;;;;5035618;28;20363;-83
2022/11/10 04:50:12;;;;;;;24.95;23.02;;;9.40;99.90;;;;;;5018337;28;20037;-85
2022/11/10 04:52:38;;;;;;;23.73;21.83;;;9.40;99.90;;;;;;5033948;28;20413;-83
2022/11/10 04:55:05;;;;;;;23.65;21.77;;;9.40;99.90;;;;;;5043529;28;20040;-84
2022/11/10 04:57:31;;;;;;;25.38;23.42;;;9.40;99.90;;;;;;5035904;28;20025;-83
2022/11/10 04:59:57;;;;;;;24.15;22.35;;;9.40;99.90;;;;;;5053338;28;20033;-84
2022/11/10 05:02:23;;;;;;;24.02;22.30;;;9.50;99.90;;;;;;5017052;28;20468;-83
2022/11/10 05:04:49;;;;;;;24.83;22.90;;;9.50;99.90;;;;;;5051992;28;20036;-83
2022/11/10 05:07:15;;;;;;;24.42;22.67;;;9.30;99.90;;;;;;5052820;28;20390;-85
2022/11/10 05:09:41;;;;;;;23.45;21.95;;;9.20;99.90;;;;;;5017593;28;20033;-85
2022/11/10 05:12:07;;;;;;;24.77;22.77;;;9.10;99.90;;;;;;5017809;28;20482;-85
2022/11/10 05:14:33;;;;;;;23.83;21.98;;;9.10;99.90;;;;;;5035048;28;20051;-86
2022/11/10 05:16:59;;;;;;;23.73;22.13;;;9.10;99.90;;;;;;5017274;28;20493;-86
2022/11/10 05:19:25;;;;;;;23.10;21.50;;;9.20;99.90;;;;;;5052458;28;20032;-86
2022/11/10 05:21:51;;;;;;;23.98;22.40;;;9.30;99.90;;;;;;5035758;28;20024;-88
2022/11/10 05:24:17;;;;;;;23.73;22.02;;;9.30;99.90;;;;;;5017919;28;20037;-86
2022/11/10 05:26:43;;;;;;;22.77;21.15;;;9.40;99.90;;;;;;5034638;28;20032;-88
2022/11/10 05:29:10;;;;;;;23.70;22.00;;;9.50;99.90;;;;;;5018788;28;20036;-87
2022/11/10 05:31:36;;;;;;;23.80;22.20;;;9.20;99.90;;;;;;5016935;28;20052;-88
2022/11/10 05:34:02;;;;;;;24.20;22.65;;;8.80;99.90;;;;;;5034437;28;20048;-88
2022/11/10 05:36:28;;;;;;;25.13;23.42;;;8.50;99.90;;;;;;5035514;28;20040;-88
2022/11/10 05:38:54;;;;;;;26.98;25.33;;;8.40;99.90;;;;;;5034205;28;20045;-88
2022/11/10 05:41:20;;;;;;;27.67;25.85;;;8.30;99.90;;;;;;5035065;28;20049;-88
2022/11/10 05:43:46;;;;;;;29.30;27.45;;;8.30;99.90;;;;;;5035060;28;20032;-89
2022/11/10 05:46:12;;;;;;;26.38;24.15;;;8.40;99.90;;;;;;5034534;28;20033;-89
2022/11/10 05:48:38;;;;;;;25.98;24.08;;;8.50;99.90;;;;;;5025822;28;20033;-88
2022/11/10 05:51:05;;;;;;;27.10;24.98;;;8.70;99.90;;;;;;5032888;28;20278;-88
2022/11/10 05:53:34;;;;;;;28.02;26.02;;;8.60;99.90;;;;;;5034512;28;20036;-89
2022/11/10 05:56:00;;;;;;;27.00;25.13;;;8.60;99.90;;;;;;5017874;28;20049;-88
2022/11/10 05:58:26;;;;;;;26.15;24.50;;;8.70;99.90;;;;;;5051348;28;20030;-87
2022/11/10 06:00:52;;;;;;;26.15;24.45;;;8.70;99.90;;;;;;5030798;28;20048;-88
2022/11/10 06:03:19;;;;;;;26.05;24.10;;;8.80;99.90;;;;;;5015168;28;20037;-88
2022/11/10 06:05:45;;;;;;;23.70;21.95;;;8.80;99.90;;;;;;5032736;28;20029;-88
2022/11/10 06:08:11;;;;;;;25.52;23.92;;;8.90;99.90;;;;;;5014985;28;20025;-88
2022/11/10 06:10:37;;;;;;;24.90;23.00;;;8.90;99.90;;;;;;5032443;28;20040;-88
2022/11/10 06:13:03;;;;;;;25.83;23.70;;;8.90;99.90;;;;;;5017291;28;20610;-88
2022/11/10 06:15:29;;;;;;;24.08;22.55;;;9.00;99.90;;;;;;5032752;28;20493;-89
2022/11/10 06:17:55;;;;;;;25.95;23.90;;;9.10;99.90;;;;;;5052130;28;20033;-87
2022/11/10 06:20:22;;;;;;;25.25;23.25;;;9.10;99.90;;;;;;5034274;28;20033;-87
2022/11/10 06:23:05;;;;;;;28.05;25.85;;;9.00;99.90;;;;;;5017916;28;20029;-88
2022/11/10 06:25:32;;;;;;;23.83;22.33;;;8.70;99.90;;;;;;5014985;28;20056;-89
2022/11/10 06:27:59;;;;;;;25.88;23.40;;;8.70;99.90;;;;;;5001070;28;20041;-88
2022/11/10 06:30:25;;;;;;;24.30;22.70;;;8.80;99.90;;;;;;5016730;28;20033;-87
2022/11/10 06:32:52;;;;;;;26.67;24.67;;;8.90;99.90;;;;;;5017920;28;20520;-88
2022/11/10 06:35:18;;;;;;;27.88;25.80;;;8.90;99.90;;;;;;5003600;28;20040;-87
2022/11/10 06:37:44;;;;;;;26.05;23.90;;;8.70;99.90;;;;;;5021633;28;20037;-88
2022/11/10 06:40:11;;;;;;;27.05;24.20;;;8.30;99.90;;;;;;4999482;28;20034;-87
2022/11/10 06:42:38;;;;;;;25.65;23.95;;;8.10;99.90;;;;;;5034035;28;20022;-88
2022/11/10 06:45:04;;;;;;;27.10;25.33;;;7.90;99.90;;;;;;5016114;28;20037;-89
2022/11/10 06:47:30;;;;;;;27.65;25.45;;;7.80;99.90;;;;;;5034434;28;20097;-88
2022/11/10 06:49:56;;;;;;;28.23;26.00;;;7.80;99.90;;;;;;5028272;28;20034;-87
2022/11/10 06:52:22;;;;;;;28.13;25.90;;;7.70;99.90;;;;;;5035611;28;20034;-87
2022/11/10 06:54:49;;;;;;;29.23;27.00;;;7.60;99.90;;;;;;5017979;28;20041;-88
2022/11/10 06:57:15;;;;;;;29.47;26.57;;;7.70;99.90;;;;;;5035649;28;20036;-87
2022/11/10 06:59:41;;;;;;;30.33;28.13;;;7.80;99.90;;;;;;5034910;28;20037;-87
2022/11/10 07:02:12;;;;;;;29.08;26.77;;;8.00;99.90;;;;;;5030282;28;20029;-87
2022/11/10 07:04:38;;;;;;;26.50;24.10;;;8.30;99.90;;;;;;4993831;28;20045;-88
2022/11/10 07:07:04;;;;;;;27.67;25.40;;;8.40;99.90;;;;;;5016269;28;20037;-90
2022/11/10 07:09:30;;;;;;;29.83;27.00;;;8.50;99.90;;;;;;5032836;28;20037;-86
2022/11/10 07:11:56;;;;;;;29.05;26.92;;;8.50;99.90;;;;;;5034334;28;20029;-86
2022/11/10 07:14:22;;;;;;;30.85;28.25;;;8.50;99.90;;;;;;5014675;28;20045;-86
2022/11/10 07:16:49;;;;;;;28.05;25.73;;;8.60;99.90;;;;;;5016263;28;20030;-87
2022/11/10 07:19:15;;;;;;;29.13;26.70;;;8.70;99.90;;;;;;5033785;28;20033;-88
2022/11/10 07:21:41;;;;;;;29.45;26.85;;;8.80;99.90;;;;;;5017830;28;20036;-87
2022/11/10 07:24:07;;;;;;;29.75;27.08;;;8.60;99.90;;;;;;5000844;28;20040;-87
2022/11/10 07:26:33;;;;;;;29.08;26.35;;;8.70;99.90;;;;;;5034503;28;20052;-87
2022/11/10 07:29:00;;;;;;;28.33;26.23;;;8.80;99.90;;;;;;5033232;28;20029;-87
2022/11/10 07:31:26;;;;;;;28.10;25.95;;;8.90;99.90;;;;;;5016323;28;20482;-87
2022/11/10 07:33:52;;;;;;;30.77;28.40;;;8.90;99.90;;;;;;5016600;28;20143;-87
2022/11/10 07:36:18;;;;;;;30.13;27.90;;;8.70;99.90;;;;;;5001020;28;20398;-89
2022/11/10 07:38:44;;;;;;;31.53;28.90;;;8.70;99.90;;;;;;5005258;28;20037;-92
2022/11/10 07:41:10;;;;;;;31.73;28.85;;;8.50;99.90;;;;;;5008027;28;20493;-93
2022/11/10 07:43:36;;;;;;;30.63;28.33;;;8.50;99.90;;;;;;5007936;28;20049;-95
2022/11/10 07:46:03;;;;;;;28.92;26.83;;;8.50;99.90;;;;;;5001109;28;20038;-90
2022/11/10 07:48:29;;;;;;;30.10;27.50;;;8.50;99.90;;;;;;5010708;28;20046;-87
2022/11/10 07:50:55;;;;;;;28.63;26.33;;;8.50;99.90;;;;;;5014255;28;20038;-85
2022/11/10 07:53:21;;;;;;;28.30;26.17;;;8.50;99.90;;;;;;5014112;28;20391;-87
2022/11/10 07:55:47;;;;;;;27.08;25.08;;;8.40;99.90;;;;;;5017958;28;20053;-90
2022/11/10 07:58:15;;;;;;;29.55;27.20;;;8.30;99.90;;;;;;5042396;28;20044;-94
2022/11/10 08:00:41;;;;;;;27.52;25.48;;;8.40;99.90;;;;;;5044096;28;20037;-94
2022/11/10 08:03:13;;;;;;;27.63;25.63;;;8.40;99.90;;;;;;5028356;28;20033;-94
2022/11/10 08:05:39;;;;;;;;;;;8.30;99.90;;;;;;5036907;28;20017;-92
2022/11/10 08:08:05;;;;;;;28.52;26.17;;;8.20;99.90;;;;;;5045868;28;19959;-92
2022/11/10 08:10:37;;;;;;;29.65;27.20;;;8.30;99.90;;;;;;5042968;28;20030;-94
2022/11/10 08:13:05;;;;;;;31.05;28.40;;;8.40;99.90;;;;;;5022991;28;20048;-92
2022/11/10 08:15:31;;;;;;;31.33;28.55;;;8.40;99.90;;;;;;5041378;28;20493;-92
2022/11/10 08:18:24;;;;;;;32.40;29.48;;;8.40;99.90;;;;;;5039053;28;20029;-91
2022/11/10 08:20:51;;;;;;;31.92;29.27;;;8.30;99.90;;;;;;5021086;28;20513;-95
2022/11/10 08:23:17;;;;;;;40.67;37.78;;;8.50;99.90;;;;;;5033783;28;20026;-92
2022/11/10 08:25:45;;;;;;;44.22;41.13;;;8.70;99.90;;;;;;5000798;28;20037;-92
2022/11/10 08:28:13;;;;;;;36.03;33.13;;;9.30;99.90;;;;;;4998215;28;20034;-89
2022/11/10 08:30:41;;;;;;;35.72;32.42;;;9.60;99.90;;;;;;4997310;28;20092;-88
2022/11/10 08:33:07;;;;;;;36.30;32.88;;;9.90;99.90;;;;;;5030793;28;20064;-85
2022/11/10 08:35:35;;;;;;;35.50;31.95;;;9.90;99.90;;;;;;5017748;28;20042;-85
2022/11/10 08:38:09;;;;;;;36.25;33.08;;;9.80;99.90;;;;;;5032063;28;20492;-84
2022/11/10 08:40:35;;;;;;;36.03;33.00;;;9.80;99.90;;;;;;5015121;28;20041;-84
2022/11/10 08:43:06;;;;;;;33.33;30.65;;;9.70;99.90;;;;;;5030698;28;20397;-85
2022/11/10 08:45:33;;;;;;;36.42;33.72;;;9.70;99.90;;;;;;5032560;28;20033;-84
2022/11/10 08:48:04;;;;;;;36.28;33.20;;;9.80;99.90;;;;;;5031801;28;20029;-86
2022/11/10 08:50:30;;;;;;;33.15;30.65;;;9.80;99.90;;;;;;5025274;28;20045;-88
2022/11/10 08:53:00;;;;;;;33.30;30.58;;;9.90;99.90;;;;;;5000316;28;20390;-83
2022/11/10 08:55:26;;;;;;;33.70;31.00;;;9.90;99.90;;;;;;5033489;28;20041;-85
2022/11/10 08:57:52;;;;;;;33.38;30.98;;;9.90;99.90;;;;;;5030647;28;20025;-85
2022/11/10 09:00:18;;;;;;;32.92;30.40;;;9.90;99.90;;;;;;5014546;28;20033;-83
2022/11/10 09:02:44;;;;;;;37.47;34.67;;;9.90;99.90;;;;;;5030663;28;20033;-82
2022/11/10 09:05:10;;;;;;;37.65;34.65;;;10.10;99.90;;;;;;5031556;28;20029;-84
2022/11/10 09:07:44;;;;;;;36.60;33.75;;;10.20;99.90;;;;;;5031579;28;20477;-83
2022/11/10 09:10:10;;;;;;;38.08;34.85;;;10.30;99.90;;;;;;5026283;28;20029;-83
2022/11/10 09:12:36;;;;;;;35.40;32.60;;;10.30;99.90;;;;;;5032447;28;20029;-83
2022/11/10 09:15:02;;;;;;;36.08;32.83;;;10.30;99.90;;;;;;5030426;28;20505;-83
2022/11/10 09:17:30;;;;;;;36.58;33.50;;;10.40;99.90;;;;;;5032447;28;20028;-83
2022/11/10 09:19:56;;;;;;;35.05;32.03;;;10.50;99.90;;;;;;5015898;28;20025;-83
2022/11/10 09:22:22;;;;;;;36.10;33.38;;;10.50;99.90;;;;;;5031912;28;20032;-83
2022/11/10 09:24:48;;;;;;;35.40;32.33;;;10.60;99.90;;;;;;5031900;28;20029;-89
2022/11/10 09:27:14;;;;;;;35.92;32.97;;;10.70;99.90;;;;;;5012858;28;20025;-89
2022/11/10 09:29:40;;;;;;;35.20;32.65;;;10.80;99.90;;;;;;5032244;28;20034;-88
2022/11/10 09:32:06;;;;;;;35.55;32.70;;;10.80;99.90;;;;;;5030861;28;20029;-87
2022/11/10 09:34:32;;;;;;;36.05;33.58;;;10.90;99.90;;;;;;5032918;28;20046;-89
2022/11/10 09:36:58;;;;;;;39.67;36.88;;;11.00;99.90;;;;;;5033359;28;20025;-86
2022/11/10 09:39:24;;;;;;;48.05;45.13;;;11.00;99.90;;;;;;5031372;28;20021;-87
2022/11/10 09:41:51;;;;;;;46.22;43.20;;;11.20;99.90;;;;;;5031310;28;20041;-86
2022/11/10 09:44:42;;;;;;;38.83;36.08;;;11.30;99.90;;;;;;5031788;28;20045;-87
2022/11/10 09:47:31;;;;;;;38.22;35.63;;;11.30;99.90;;;;;;5012682;28;20036;-87
2022/11/10 09:49:59;;;;;;;40.35;37.63;;;11.40;99.90;;;;;;4933576;29;20044;-86
2022/11/10 09:52:26;;;;;;;37.20;34.70;;;11.50;99.90;;;;;;4917376;29;20401;-85
2022/11/10 09:55:11;;;;;;;46.63;43.65;;;11.50;99.90;;;;;;4921654;29;20060;-85
2022/11/10 09:57:37;;;;;;;47.58;44.38;;;11.60;99.90;;;;;;4951091;29;20370;-86
2022/11/10 10:00:04;;;;;;;52.05;48.63;;;11.60;99.90;;;;;;4935767;28;20047;-86
2022/11/10 10:02:39;;;;;;;48.88;45.53;;;11.70;99.90;;;;;;4934629;29;20028;-85
2022/11/10 10:05:29;;;;;;;64.60;60.55;;;11.80;99.90;;;;;;4935360;29;20051;-86
2022/11/10 10:07:55;;;;;;;57.58;53.92;;;11.90;99.90;;;;;;4951690;29;20054;-86
2022/11/10 10:10:29;;;;;;;46.53;43.42;;;12.00;99.90;;;;;;4951910;28;20027;-83
2022/11/10 10:13:24;;;;;;;58.40;54.30;;;12.00;99.90;;;;;;4951147;29;20035;-84
2022/11/10 10:16:07;;;;;;;58.35;54.53;;;12.10;99.90;;;;;;4918635;29;20425;-83
2022/11/10 10:18:43;;;;;;;61.80;57.70;;;12.10;99.90;;;;;;4935942;28;20386;-86
2022/11/10 10:21:11;;;;;;;61.22;57.28;;;12.30;99.90;;;;;;4935039;29;20420;-89
2022/11/10 10:24:03;;;;;;;59.40;55.75;;;12.40;99.90;;;;;;4946208;29;20031;-86
2022/11/10 10:26:31;;;;;;;64.80;60.60;;;12.50;99.90;;;;;;4954088;28;20034;-86
2022/11/10 10:29:01;;;;;;;66.22;61.97;;;12.60;99.90;;;;;;5031295;28;20037;-84
2022/11/10 10:31:34;;;;;;;61.67;57.83;;;12.70;99.90;;;;;;5013633;28;20032;-85
2022/11/10 10:34:00;;;;;;;61.75;57.80;;;12.80;99.90;;;;;;5030697;28;20044;-85
2022/11/10 10:36:28;;;;;;;62.25;58.42;;;12.90;99.90;;;;;;5013858;28;20145;-84
2022/11/10 10:39:08;;;;;;;55.28;51.97;;;13.00;99.90;;;;;;5015048;28;20037;-85
2022/11/10 10:41:34;;;;;;;58.00;54.58;;;13.10;99.90;;;;;;5030378;28;20408;-85
2022/11/10 10:44:01;;;;;;;56.58;52.83;;;13.30;99.90;;;;;;4994935;28;20478;-87
2022/11/10 10:46:28;;;;;;;58.65;54.92;;;13.40;99.90;;;;;;5012179;28;20078;-85
2022/11/10 10:49:27;;;;;;;49.78;46.22;;;13.40;99.90;;;;;;5030000;28;20029;-84
2022/11/10 10:52:06;;;;;;;38.03;35.38;;;13.60;99.90;;;;;;4967057;28;20090;-85
2022/11/10 10:54:33;;;;;;;29.17;27.10;;;13.60;99.90;;;;;;4968015;28;20524;-85
2022/11/10 10:57:01;;;;;;;30.85;28.63;;;13.80;99.90;;;;;;4954575;28;20043;-89
2022/11/10 10:59:27;;;;;;;32.03;29.63;;;13.80;99.90;;;;;;4954306;28;20035;-89
2022/11/10 11:01:53;;;;;;;27.65;25.30;;;14.00;99.90;;;;;;4954416;28;20051;-87
2022/11/10 11:04:36;;;;;;;24.27;22.23;;;14.10;99.90;;;;;;4936355;28;20170;-87
2022/11/10 11:07:18;;;;;;;33.92;31.45;;;14.20;99.90;;;;;;4969618;28;20480;-88
2022/11/10 11:09:44;;;;;;;26.27;24.65;;;14.30;99.90;;;;;;4954294;28;20035;-86
2022/11/10 11:12:12;;;;;;;34.10;31.77;;;14.40;99.90;;;;;;4971208;28;20030;-87
2022/11/10 11:14:38;;;;;;;38.10;35.55;;;14.40;99.90;;;;;;4950329;29;20039;-83
2022/11/10 11:17:20;;;;;;;40.08;37.20;;;14.40;99.90;;;;;;4959659;28;20154;-84
2022/11/10 11:19:47;;;;;;;29.55;27.33;;;14.60;99.90;;;;;;4969046;28;20063;-85
2022/11/10 11:22:36;;;;;;;26.17;23.77;;;14.60;99.90;;;;;;4937881;28;20503;-86
2022/11/10 11:25:02;;;;;;;23.02;21.35;;;14.70;99.90;;;;;;4974175;28;20043;-84
2022/11/10 11:27:32;;;;;;;25.02;23.20;;;14.80;99.90;;;;;;4999020;28;20033;-84
2022/11/10 11:30:23;;;;;;;26.58;24.45;;;14.80;99.90;;;;;;5024517;28;20038;-86
2022/11/10 11:33:12;;;;;;;23.38;21.33;;;14.90;99.90;;;;;;5011803;28;20037;-85
2022/11/10 11:35:53;;;;;;;26.25;24.08;;;14.90;99.90;;;;;;4979802;28;20422;-84
2022/11/10 11:38:25;;;;;;;24.67;22.88;;;15.10;99.90;;;;;;4965951;28;20555;-86
2022/11/10 11:41:11;;;;;;;27.45;25.52;;;15.10;99.90;;;;;;4970426;28;20053;-85
2022/11/10 11:44:02;;;;;;;24.77;22.95;;;15.10;99.90;;;;;;4965679;28;20030;-84
2022/11/10 11:46:40;;;;;;;25.55;23.80;;;15.20;99.90;;;;;;4972926;28;20041;-84
2022/11/10 11:49:24;;;;;;;23.58;21.65;;;15.40;99.90;;;;;;4979752;28;20041;-84
2022/11/10 11:52:05;;;;;;;24.02;22.30;;;15.50;99.90;;;;;;4990852;28;20050;-84
2022/11/10 11:54:49;;;;;;;;;;;15.70;99.90;;;;;;4971781;28;20047;-83
2022/11/10 11:57:37;;;;;;;24.48;22.60;;;15.70;99.90;;;;;;4992201;28;20092;-84
2022/11/10 12:00:09;;;;;;;22.25;20.58;;;15.80;99.90;;;;;;4975577;28;20158;-85
2022/11/10 12:02:41;;;;;;;22.10;20.52;;;16.00;99.90;;;;;;4974182;28;20038;-83
2022/11/10 12:05:07;;;;;;;25.13;23.35;;;15.90;99.90;;;;;;4990167;28;20041;-84
2022/11/10 12:07:49;;;;;;;24.45;22.77;;;15.90;99.90;;;;;;4992806;28;20480;-84
2022/11/10 12:10:36;;;;;;;22.67;20.63;;;16.00;99.90;;;;;;4990527;28;20038;-83
2022/11/10 12:13:30;;;;;;;24.55;22.58;;;16.00;99.90;;;;;;4976957;28;20118;-83
2022/11/10 12:16:16;;;;;;;24.33;22.55;;;16.00;99.90;;;;;;5030791;28;20037;-83
2022/11/10 12:18:55;;;;;;;21.67;20.05;;;16.00;99.90;;;;;;5010226;28;20033;-84
2022/11/10 12:21:25;;;;;;;23.70;21.90;;;16.00;99.90;;;;;;5032494;28;20029;-84
2022/11/10 12:24:09;;;;;;;25.80;24.13;;;16.00;99.90;;;;;;5025800;28;20029;-81
2022/11/10 12:27:02;;;;;;;25.42;23.52;;;16.00;99.90;;;;;;5014106;28;20044;-89
2022/11/10 12:29:40;;;;;;;25.52;23.83;;;16.00;99.90;;;;;;5025510;28;20044;-87
2022/11/10 12:32:26;;;;;;;24.23;22.42;;;15.80;99.90;;;;;;5031438;28;20042;-81
2022/11/10 12:35:10;;;;;;;28.77;26.92;;;15.80;99.90;;;;;;5032272;28;20486;-83
2022/11/10 12:37:42;;;;;;;28.35;26.10;;;15.80;99.90;;;;;;5033260;28;20474;-82
2022/11/10 12:40:15;;;;;;;27.42;25.52;;;15.80;99.90;;;;;;5016843;28;20033;-83
2022/11/10 12:42:42;;;;;;;27.60;25.80;;;15.80;99.90;;;;;;5033118;28;20032;-82
2022/11/10 12:45:17;;;;;;;23.15;21.45;;;15.80;99.90;;;;;;5016231;28;20037;-82
2022/11/10 12:47:44;;;;;;;22.80;21.27;;;15.80;99.90;;;;;;5033107;28;20026;-82
2022/11/10 12:50:53;;;;;;;24.00;21.80;;;15.80;99.90;;;;;;4997026;28;20057;-83
2022/11/10 12:53:29;;;;;;;19.50;18.00;;;16.00;99.90;;;;;;4943472;29;20039;-82
2022/11/10 12:56:10;;;;;;;21.27;19.95;;;16.20;99.90;;;;;;4922259;29;20051;-82
2022/11/10 12:58:36;;;;;;;21.98;20.50;;;16.50;99.90;;;;;;4921652;29;20051;-82
2022/11/10 13:01:04;;;;;;;21.58;20.02;;;16.70;99.90;;;;;;4936899;28;20035;-82